Long Mott, Texas
Current Conditions -  °F | °C
As of 3:35 PM on Tuesday 25 Nov 2014 (Local Time) from KPKV Reporting Station
Clear Clear  
Wind Chill: 65°   Ceiling: Unl
Heat Index: 65°   Visibility: 10mi
Dew Point: 32°   Wind: 6mph
Humidity: 28%   Direction: 270°W
Pressure: 30.26"   Gusts: NA
Location:  28.48°N, 96.76°W
Report Text: KPKV 252135Z AUTO 27005KT 10SM CLR 19/00 A3026 RMK AO2 T01851002
Loading
Personal Weather Stations






























Interactive Weather Map New forecast layout! Learn more

10-Day Weather Forecast

Advertisements
Track Severe Weather on mobile